»·PEaware :: N856CM KBFL-KMHV

N856CM :: KBFL-KMHV

FLIGHT INFORMATION

Flight Status: Arrived
Operator: Privately registered:
United States
More flights under this callsign
Pilot: Jimmy M. (17685)
Aircraft: CESSNA 172 SKYHAWK
(C172)
More flights by this aircraft type
Origin: KBFL Meadows
United States
Destination: KMHV Mojave
United States
More flights between these airports :: More routes between these airports
Route: +
File this flight plan on PilotEdge
Remarks:
Altitude:
(Current/Filed)
7,500ft
Speed:
(Current/Filed)
0kts
Departed: 30-Dec-17 11:39 AM
Arrived: 30-Dec-17 12:14 PM
Distance/Time
Traveled:
50nm/0:35
Distance/Time
To Go:
Arrived

Flight Plot

Page will automatically refresh every two minutes.


Map Options




Map Legend


Flown Route
Filed Route
Departure Airport
Arrival Airport
Navaid (VOR, NDB)
Fix

Horizontal Profiles

Position Reports

Time Latitude Longitude Heading Altitude Ground
Speed
30-Dec-17 11:31 35.435702 -119.052044 179 504ft 0kts
30-Dec-17 11:32 35.435702 -119.052044 179 504ft 0kts
30-Dec-17 11:33 35.435702 -119.052044 179 504ft 0kts
30-Dec-17 11:34 35.435702 -119.052044 179 504ft 0kts
30-Dec-17 11:35 35.434958 -119.053991 223 496ft 14kts
30-Dec-17 11:36 35.433570 -119.053610 139 493ft 19kts
30-Dec-17 11:37 35.429507 -119.048675 138 490ft 21kts
30-Dec-17 11:38 35.425941 -119.044593 184 481ft 9kts
30-Dec-17 11:39 35.425700 -119.044769 225 479ft 0kts
30-Dec-17 11:40 35.425700 -119.044769 225 479ft 0kts
30-Dec-17 11:41 35.425700 -119.044769 225 479ft 0kts
30-Dec-17 11:42 35.425700 -119.044769 225 479ft 0kts
30-Dec-17 11:43 35.425700 -119.044769 225 479ft 0kts
30-Dec-17 11:44 35.425700 -119.044769 225 479ft 0kts
30-Dec-17 11:45 35.427642 -119.048724 313 481ft 68kts
30-Dec-17 11:46 35.441122 -119.072993 300 1307ft 99kts
30-Dec-17 11:47 35.456238 -119.102627 301 2110ft 103kts
30-Dec-17 11:48 35.479253 -119.108149 27 2968ft 96kts
30-Dec-17 11:49 35.493220 -119.086191 118 3943ft 93kts
30-Dec-17 11:50 35.477416 -119.062429 128 4924ft 86kts
30-Dec-17 11:51 35.461723 -119.039431 128 5806ft 89kts
30-Dec-17 11:52 35.446472 -119.016873 128 6696ft 82kts
30-Dec-17 11:53 35.431236 -118.993995 128 7418ft 93kts
30-Dec-17 11:54 35.411381 -118.964169 129 7498ft 125kts
30-Dec-17 11:55 35.389295 -118.931112 129 7498ft 124kts
30-Dec-17 11:56 35.369339 -118.896933 119 7498ft 123kts
30-Dec-17 11:57 35.352755 -118.860208 114 7498ft 123kts
30-Dec-17 11:58 35.337616 -118.822325 114 7498ft 124kts
30-Dec-17 11:59 35.322426 -118.784418 114 7490ft 124kts
30-Dec-17 12:00 35.307088 -118.746145 114 7458ft 125kts
30-Dec-17 12:01 35.291630 -118.708609 118 7426ft 125kts
30-Dec-17 12:02 35.274768 -118.671435 115 7395ft 125kts
30-Dec-17 12:03 35.259009 -118.633668 115 7363ft 125kts
30-Dec-17 12:04 35.243200 -118.595770 115 7332ft 125kts
30-Dec-17 12:05 35.227408 -118.557893 115 7300ft 125kts
30-Dec-17 12:06 35.211743 -118.520261 114 7297ft 123kts
30-Dec-17 12:07 35.196123 -118.482645 114 7297ft 123kts
30-Dec-17 12:08 35.180600 -118.445161 114 7297ft 123kts
30-Dec-17 12:09 35.165111 -118.407646 114 7297ft 123kts
30-Dec-17 12:10 35.149682 -118.370175 114 7298ft 124kts
30-Dec-17 12:11 35.134800 -118.333920 115 7335ft 121kts
30-Dec-17 12:12 35.119693 -118.296972 115 7285ft 117kts
30-Dec-17 12:13 35.105739 -118.262990 115 6971ft 107kts
30-Dec-17 12:14 35.091876 -118.229234 115 6089ft 114kts
30-Dec-17 12:15 35.078158 -118.195742 115 5088ft 103kts
30-Dec-17 12:16 35.066946 -118.165294 96 4068ft 98kts
30-Dec-17 12:17 35.068312 -118.132726 84 3402ft 81kts
30-Dec-17 12:18 35.066138 -118.104628 142 3362ft 91kts
30-Dec-17 12:19 35.059124 -118.121796 271 3181ft 93kts
30-Dec-17 12:20 35.059163 -118.150105 271 2750ft 28kts
30-Dec-17 12:21 35.058571 -118.149990 135 2748ft 0kts
30-Dec-17 12:22 35.058571 -118.149990 135 2748ft 0kts
30-Dec-17 12:23 35.058571 -118.149990 135 2748ft 0kts
30-Dec-17 12:24 35.058571 -118.149990 135 2748ft 0kts
30-Dec-17 12:25 35.057584 -118.150965 268 2749ft 20kts
30-Dec-17 12:26 35.056997 -118.153358 87 2754ft 0kts
30-Dec-17 12:27 35.056997 -118.153359 87 2754ft 0kts
30-Dec-17 12:28 35.056997 -118.153359 87 2754ft 0kts
30-Dec-17 12:29 35.056997 -118.153359 87 2754ft 0kts
30-Dec-17 12:30 35.056997 -118.153359 87 2754ft 0kts
30-Dec-17 12:31 35.056997 -118.153359 87 2754ft 0kts
30-Dec-17 12:32 35.056997 -118.153359 87 2754ft 0kts
30-Dec-17 12:33 35.056997 -118.153359 87 2754ft 0kts
30-Dec-17 12:34 35.056997 -118.153359 87 2754ft 0kts

Navigation Log

Ident Type
1. KBFL Airport
2. KMHV Airport